Time;durP1;ratioP1;P1;durP2;ratioP2;P2;SDS_P1;SDS_P2;PMS_P1;PMS_P2;Temp;Humidity;BMP_temperature;BMP_pressure;BME280_temperature;BME280_humidity;BME280_pressure;Samples;Min_cycle;Max_cycle;Signal;HPM_P1;HPM_P2
2021/07/10 00:00:49;;;;;;;11.80;9.20;;;23.90;67.80;;;;;;5057681;28;20040;-43
2021/07/10 00:03:15;;;;;;;12.85;10.25;;;23.80;67.80;;;;;;5057103;28;20025;-49
2021/07/10 00:05:41;;;;;;;15.55;11.88;;;23.80;67.80;;;;;;5057970;28;20097;-45
2021/07/10 00:08:07;;;;;;;15.00;11.50;;;23.80;67.80;;;;;;5056865;28;20079;-46
2021/07/10 00:10:32;;;;;;;14.20;10.95;;;23.70;67.90;;;;;;5057744;28;20033;-44
2021/07/10 00:12:59;;;;;;;12.43;10.43;;;23.70;68.10;;;;;;5057213;28;20044;-47
2021/07/10 00:15:25;;;;;;;14.68;9.65;;;23.60;68.10;;;;;;5057689;28;20420;-46
2021/07/10 00:17:52;;;;;;;13.38;10.50;;;23.60;68.30;;;;;;5056710;28;20067;-44
2021/07/10 00:20:18;;;;;;;21.23;10.35;;;23.60;68.40;;;;;;5057920;28;20131;-45
2021/07/10 00:22:44;;;;;;;17.50;12.20;;;23.50;68.50;;;;;;5057108;28;20031;-42
2021/07/10 00:25:12;;;;;;;17.67;11.50;;;23.50;68.50;;;;;;5057507;28;20036;-46
2021/07/10 00:27:40;;;;;;;12.15;9.80;;;23.50;68.60;;;;;;5056821;28;20029;-42
2021/07/10 00:30:08;;;;;;;14.25;10.45;;;23.50;68.90;;;;;;5057317;28;20325;-45
2021/07/10 00:32:34;;;;;;;13.60;11.73;;;23.40;69.00;;;;;;5056713;28;20421;-44
2021/07/10 00:35:00;;;;;;;13.18;11.55;;;23.40;68.90;;;;;;5057224;28;20036;-42
2021/07/10 00:37:25;;;;;;;19.58;11.90;;;23.40;69.00;;;;;;5056964;28;20424;-44
2021/07/10 00:39:51;;;;;;;14.23;11.30;;;23.30;68.90;;;;;;5057003;28;20310;-46
2021/07/10 00:42:19;;;;;;;14.93;12.20;;;23.30;69.00;;;;;;5056200;28;20053;-44
2021/07/10 00:44:46;;;;;;;15.30;11.38;;;23.30;69.00;;;;;;5056998;28;20424;-46
2021/07/10 00:47:12;;;;;;;14.23;12.13;;;23.20;69.60;;;;;;5056841;28;20483;-46
2021/07/10 00:49:37;;;;;;;14.05;11.93;;;23.20;69.30;;;;;;5056796;28;20140;-46
2021/07/10 00:52:04;;;;;;;16.50;11.93;;;23.20;69.40;;;;;;5056627;28;20056;-45
2021/07/10 00:54:30;;;;;;;17.92;11.98;;;23.10;69.40;;;;;;5056802;28;20029;-43
2021/07/10 00:56:59;;;;;;;16.00;11.82;;;23.10;69.50;;;;;;5056443;28;20033;-44
2021/07/10 00:59:27;;;;;;;13.25;11.25;;;23.00;69.60;;;;;;5056525;28;20025;-43
2021/07/10 01:01:52;;;;;;;13.82;11.20;;;23.00;69.70;;;;;;5056180;28;20029;-43
2021/07/10 01:04:18;;;;;;;20.30;11.68;;;23.00;69.80;;;;;;5056254;28;20028;-47
2021/07/10 01:06:44;;;;;;;12.75;10.15;;;23.00;70.10;;;;;;5056665;28;20432;-43
2021/07/10 01:09:10;;;;;;;11.70;10.50;;;22.90;70.10;;;;;;5056110;28;20445;-46
2021/07/10 01:11:36;;;;;;;15.23;11.23;;;22.90;70.20;;;;;;5056221;28;20116;-47
2021/07/10 01:14:02;;;;;;;15.48;11.38;;;22.90;70.40;;;;;;5055947;28;20079;-43
2021/07/10 01:16:28;;;;;;;17.02;10.85;;;22.90;70.50;;;;;;5056273;28;20041;-47
2021/07/10 01:18:54;;;;;;;13.63;11.32;;;22.80;70.60;;;;;;5055673;28;20309;-42
2021/07/10 01:21:20;;;;;;;15.68;11.10;;;22.80;70.70;;;;;;5055962;28;20037;-46
2021/07/10 01:23:48;;;;;;;13.23;10.25;;;22.80;70.90;;;;;;5055740;28;20078;-44
2021/07/10 01:26:14;;;;;;;12.73;9.88;;;22.80;71.10;;;;;;5056175;28;20068;-45
2021/07/10 01:28:39;;;;;;;10.63;9.40;;;22.80;71.20;;;;;;5055810;28;20025;-46
2021/07/10 01:31:06;;;;;;;12.52;9.70;;;22.70;71.30;;;;;;5055923;28;20044;-46
2021/07/10 01:33:31;;;;;;;14.50;9.73;;;22.70;71.50;;;;;;5055547;28;20017;-44
2021/07/10 01:35:57;;;;;;;15.00;10.80;;;22.70;71.50;;;;;;5055976;28;20259;-45
2021/07/10 01:38:23;;;;;;;16.23;10.23;;;22.70;71.80;;;;;;5055549;28;20428;-43
2021/07/10 01:40:49;;;;;;;13.40;9.13;;;22.70;71.80;;;;;;5056009;28;20096;-45
2021/07/10 01:43:14;;;;;;;14.40;9.75;;;22.70;72.00;;;;;;5055299;28;20039;-42
2021/07/10 01:45:41;;;;;;;14.40;9.90;;;22.70;71.80;;;;;;5056114;28;20032;-47
2021/07/10 01:48:10;;;;;;;10.85;9.75;;;22.70;71.80;;;;;;5055618;28;20087;-45
2021/07/10 01:50:36;;;;;;;13.77;9.85;;;22.60;71.60;;;;;;5056010;28;20040;-48
2021/07/10 01:53:02;;;;;;;12.63;9.95;;;22.70;71.60;;;;;;5055618;28;20056;-43
2021/07/10 01:55:28;;;;;;;11.82;9.80;;;22.60;71.70;;;;;;5056193;28;20090;-43
2021/07/10 01:57:54;;;;;;;17.17;10.38;;;22.60;71.80;;;;;;5055453;28;20033;-45
2021/07/10 02:00:23;;;;;;;14.32;10.18;;;22.70;72.10;;;;;;5056046;28;20025;-45
2021/07/10 02:02:49;;;;;;;16.95;10.95;;;22.60;72.10;;;;;;5055140;28;20060;-46
2021/07/10 02:05:20;;;;;;;14.00;11.32;;;22.60;72.10;;;;;;5055976;28;20033;-44
2021/07/10 02:07:46;;;;;;;14.05;10.43;;;22.60;72.30;;;;;;5055121;28;20024;-45
2021/07/10 02:10:13;;;;;;;12.80;10.73;;;22.60;72.30;;;;;;5055229;28;20091;-46
2021/07/10 02:12:42;;;;;;;12.00;10.43;;;22.50;72.40;;;;;;5054976;28;20032;-44
2021/07/10 02:15:08;;;;;;;13.73;10.18;;;22.50;72.50;;;;;;5055710;28;20032;-46
2021/07/10 02:17:34;;;;;;;15.98;11.45;;;22.50;72.70;;;;;;5054905;28;20037;-44
2021/07/10 02:20:00;;;;;;;14.82;9.75;;;22.50;72.80;;;;;;5055705;28;20033;-46
2021/07/10 02:22:25;;;;;;;15.07;11.32;;;22.50;72.90;;;;;;5055225;28;20044;-42
2021/07/10 02:24:51;;;;;;;15.05;9.82;;;22.50;73.00;;;;;;5055647;28;20108;-42
2021/07/10 02:27:17;;;;;;;19.27;13.15;;;22.40;73.00;;;;;;5055273;28;20041;-45
2021/07/10 02:29:43;;;;;;;16.15;11.55;;;22.40;73.10;;;;;;5055546;28;20051;-43
2021/07/10 02:32:09;;;;;;;19.00;10.60;;;22.40;73.10;;;;;;5058058;28;20029;-46
2021/07/10 02:34:35;;;;;;;18.52;10.40;;;22.40;73.10;;;;;;5059355;28;20032;-45
2021/07/10 02:37:00;;;;;;;13.35;10.32;;;22.40;73.30;;;;;;5059340;28;20111;-45
2021/07/10 02:39:26;;;;;;;14.30;10.38;;;22.40;73.30;;;;;;5059137;28;20029;-46
2021/07/10 02:41:51;;;;;;;12.73;10.93;;;22.40;73.50;;;;;;5058810;28;20052;-43
2021/07/10 02:44:18;;;;;;;13.40;10.35;;;22.40;73.60;;;;;;5058921;28;20049;-46
2021/07/10 02:46:44;;;;;;;18.05;10.85;;;22.40;73.60;;;;;;5058848;28;20029;-45
2021/07/10 02:49:10;;;;;;;12.18;10.45;;;22.40;73.60;;;;;;5058549;28;20360;-46
2021/07/10 02:51:38;;;;;;;18.35;11.40;;;22.40;73.60;;;;;;5058556;28;20033;-44
2021/07/10 02:54:04;;;;;;;14.57;10.10;;;22.40;73.70;;;;;;5058592;28;20056;-46
2021/07/10 02:56:29;;;;;;;14.93;9.82;;;22.50;73.80;;;;;;5058814;28;20029;-46
2021/07/10 02:58:55;;;;;;;11.98;9.10;;;22.40;73.90;;;;;;5058294;28;20025;-43
2021/07/10 03:01:21;;;;;;;15.73;10.65;;;22.50;73.90;;;;;;5058598;28;20029;-45
2021/07/10 03:03:46;;;;;;;16.83;10.48;;;22.50;74.60;;;;;;5058268;28;20040;-42
2021/07/10 03:06:12;;;;;;;20.33;11.25;;;22.50;73.90;;;;;;5058819;28;20109;-45
2021/07/10 03:08:39;;;;;;;16.55;11.40;;;22.60;74.10;;;;;;5058507;28;20029;-44
2021/07/10 03:11:05;;;;;;;19.75;10.30;;;22.60;74.20;;;;;;5058746;28;20033;-45
2021/07/10 03:13:31;;;;;;;18.55;10.40;;;22.60;74.30;;;;;;5058185;28;20028;-47
2021/07/10 03:15:57;;;;;;;15.55;9.75;;;22.60;74.40;;;;;;5058868;28;20024;-44
2021/07/10 03:18:22;;;;;;;13.07;9.25;;;22.70;74.50;;;;;;5058450;28;20017;-47
2021/07/10 03:20:48;;;;;;;10.65;8.82;;;22.70;74.40;;;;;;5058315;28;20120;-43
2021/07/10 03:23:14;;;;;;;11.85;8.68;;;22.80;74.50;;;;;;5057784;28;20056;-43
2021/07/10 03:25:41;;;;;;;32.33;11.15;;;22.80;74.60;;;;;;5058726;28;20075;-44
2021/07/10 03:28:08;;;;;;;11.10;8.50;;;22.80;74.70;;;;;;5057962;28;20061;-46
2021/07/10 03:30:33;;;;;;;14.43;9.57;;;22.90;74.70;;;;;;5058560;28;20086;-49
2021/07/10 03:32:59;;;;;;;15.35;9.02;;;22.90;74.90;;;;;;5058245;28;20029;-44
2021/07/10 03:35:25;;;;;;;16.40;8.98;;;23.00;75.00;;;;;;5058536;28;20059;-43
2021/07/10 03:37:51;;;;;;;10.07;7.97;;;23.00;75.10;;;;;;5057747;28;20033;-42
2021/07/10 03:40:23;;;;;;;13.18;9.77;;;23.10;75.20;;;;;;5058208;28;20036;-45
2021/07/10 03:42:49;;;;;;;10.55;8.63;;;23.10;75.30;;;;;;5056720;28;20040;-45
2021/07/10 03:45:15;;;;;;;10.18;8.38;;;23.20;75.40;;;;;;5057860;28;20329;-46
2021/07/10 03:47:41;;;;;;;13.20;8.60;;;23.20;75.30;;;;;;5057491;28;20029;-47
2021/07/10 03:50:09;;;;;;;14.60;8.30;;;23.30;75.30;;;;;;5057943;28;20090;-48
2021/07/10 03:52:36;;;;;;;10.48;7.88;;;23.40;75.50;;;;;;5057348;28;20021;-44
2021/07/10 03:55:04;;;;;;;10.05;7.35;;;23.40;74.60;;;;;;5057915;28;20162;-47
2021/07/10 03:57:30;;;;;;;9.68;7.30;;;23.50;74.00;;;;;;5057234;28;20021;-44
2021/07/10 03:59:56;;;;;;;10.70;7.18;;;23.50;73.50;;;;;;5057879;28;20060;-48
2021/07/10 04:02:21;;;;;;;9.52;6.85;;;23.60;73.30;;;;;;5057231;28;20025;-46
2021/07/10 04:04:47;;;;;;;9.15;6.88;;;23.70;72.90;;;;;;5057351;28;20120;-43
2021/07/10 04:07:13;;;;;;;8.18;6.50;;;23.80;72.90;;;;;;5057423;28;20421;-42
2021/07/10 04:09:39;;;;;;;10.13;6.93;;;23.80;72.80;;;;;;5057611;28;20086;-44
2021/07/10 04:12:05;;;;;;;11.90;7.18;;;23.90;72.30;;;;;;5057062;28;20376;-43
2021/07/10 04:14:31;;;;;;;15.20;7.28;;;24.00;72.40;;;;;;5057423;28;20325;-46
2021/07/10 04:16:58;;;;;;;11.77;6.97;;;24.10;72.20;;;;;;5057220;28;20027;-42
2021/07/10 04:19:24;;;;;;;11.45;7.65;;;24.10;71.80;;;;;;5057199;28;20471;-46
2021/07/10 04:21:49;;;;;;;10.63;7.32;;;24.20;71.50;;;;;;5057159;28;20025;-48
2021/07/10 04:24:16;;;;;;;10.90;7.30;;;24.30;71.30;;;;;;5056620;28;20052;-45
2021/07/10 04:26:42;;;;;;;10.38;7.32;;;24.30;71.00;;;;;;5056932;28;20056;-46
2021/07/10 04:29:07;;;;;;;9.10;7.50;;;24.40;70.90;;;;;;5056808;28;20063;-46
2021/07/10 04:31:33;;;;;;;10.18;6.78;;;24.50;71.00;;;;;;5057094;28;20251;-43
2021/07/10 04:33:58;;;;;;;17.70;7.72;;;24.60;70.40;;;;;;5056581;28;20421;-46
2021/07/10 04:36:24;;;;;;;23.73;8.48;;;24.60;70.40;;;;;;5056974;28;20021;-45
2021/07/10 04:38:50;;;;;;;10.95;7.80;;;24.60;70.40;;;;;;5056448;28;20110;-43
2021/07/10 04:41:16;;;;;;;10.00;6.63;;;24.70;69.90;;;;;;5056711;28;20057;-44
2021/07/10 04:43:41;;;;;;;10.68;7.55;;;24.80;69.80;;;;;;5056472;28;20373;-46
2021/07/10 04:46:09;;;;;;;9.63;7.30;;;24.80;69.60;;;;;;5056461;28;20402;-46
2021/07/10 04:48:35;;;;;;;11.15;7.38;;;24.80;68.90;;;;;;5056318;28;20411;-46
2021/07/10 04:51:01;;;;;;;8.50;6.85;;;24.90;68.80;;;;;;5056597;28;20039;-49
2021/07/10 04:53:26;;;;;;;17.52;7.60;;;25.00;68.20;;;;;;5055975;28;20033;-45
2021/07/10 04:55:52;;;;;;;7.35;5.97;;;25.00;67.90;;;;;;5070499;28;20017;-45
2021/07/10 04:58:18;;;;;;;9.18;6.78;;;25.00;67.80;;;;;;5072921;28;20028;-42
2021/07/10 05:00:44;;;;;;;12.55;6.85;;;25.10;67.90;;;;;;5073882;28;20040;-44
2021/07/10 05:03:11;;;;;;;8.30;6.45;;;25.20;67.80;;;;;;5057874;28;20032;-43
2021/07/10 05:05:37;;;;;;;11.25;6.72;;;25.20;67.60;;;;;;5056592;28;20333;-45
2021/07/10 05:08:04;;;;;;;11.10;8.18;;;25.30;67.40;;;;;;5055811;28;20104;-46
2021/07/10 05:10:30;;;;;;;11.30;7.00;;;25.30;67.40;;;;;;5065065;28;20128;-44
2021/07/10 05:12:56;;;;;;;8.20;6.43;;;25.40;67.50;;;;;;5055591;28;20032;-48
2021/07/10 05:15:22;;;;;;;10.80;7.05;;;25.50;67.60;;;;;;5056426;28;20029;-49
2021/07/10 05:17:48;;;;;;;8.50;6.47;;;25.60;67.10;;;;;;5055783;28;20048;-48
2021/07/10 05:20:13;;;;;;;12.20;6.63;;;25.60;67.10;;;;;;5056427;28;20063;-47
2021/07/10 05:22:40;;;;;;;8.05;6.30;;;25.70;66.60;;;;;;5055546;28;20337;-47
2021/07/10 05:25:07;;;;;;;10.48;6.40;;;25.70;66.40;;;;;;5056146;28;20341;-50
2021/07/10 05:27:32;;;;;;;8.95;5.93;;;25.80;65.40;;;;;;5055378;28;20102;-47
2021/07/10 05:29:58;;;;;;;7.78;6.32;;;25.80;65.40;;;;;;5055766;28;20063;-46
2021/07/10 05:32:24;;;;;;;12.35;6.32;;;25.90;64.50;;;;;;5055461;28;20077;-48
2021/07/10 05:34:49;;;;;;;8.95;6.38;;;26.00;64.90;;;;;;5056045;28;20402;-45
2021/07/10 05:37:16;;;;;;;7.82;6.30;;;26.00;64.50;;;;;;5055264;28;20036;-47
2021/07/10 05:39:42;;;;;;;10.68;6.00;;;26.10;64.20;;;;;;5055336;28;20033;-48
2021/07/10 05:42:09;;;;;;;9.30;6.15;;;26.20;64.30;;;;;;5055127;28;20115;-49
2021/07/10 05:44:35;;;;;;;9.20;5.88;;;26.30;64.40;;;;;;5055270;28;20028;-44
2021/07/10 05:47:01;;;;;;;11.65;6.20;;;26.30;63.00;;;;;;5057115;28;20104;-43
2021/07/10 05:49:27;;;;;;;9.13;6.32;;;26.40;63.10;;;;;;5064296;28;20041;-46
2021/07/10 05:51:52;;;;;;;11.00;6.38;;;26.40;62.90;;;;;;5055114;28;20124;-49
2021/07/10 05:54:18;;;;;;;10.55;6.50;;;26.50;62.70;;;;;;5057719;28;20325;-47
2021/07/10 05:56:44;;;;;;;8.77;6.75;;;26.50;62.80;;;;;;5063935;28;20028;-48
2021/07/10 05:59:10;;;;;;;11.95;6.55;;;26.60;62.60;;;;;;5055120;28;20033;-44
2021/07/10 06:01:35;;;;;;;9.35;5.38;;;26.60;62.60;;;;;;5055348;28;20021;-44
2021/07/10 06:04:01;;;;;;;11.07;5.50;;;26.60;62.10;;;;;;5054887;28;20060;-45
2021/07/10 06:06:27;;;;;;;8.70;5.70;;;26.70;60.40;;;;;;5054708;28;20025;-48
2021/07/10 06:08:53;;;;;;;7.97;5.10;;;26.70;59.90;;;;;;5054884;28;20087;-44
2021/07/10 06:11:19;;;;;;;7.07;4.85;;;26.80;60.10;;;;;;5055048;28;20368;-43
2021/07/10 06:13:44;;;;;;;9.35;5.28;;;26.80;60.30;;;;;;5054617;28;20033;-48
2021/07/10 06:16:10;;;;;;;7.97;4.90;;;26.90;58.90;;;;;;5055201;28;20048;-44
2021/07/10 06:18:36;;;;;;;6.90;5.60;;;26.90;58.40;;;;;;5054820;28;20025;-49
2021/07/10 06:21:01;;;;;;;7.93;5.63;;;26.90;57.40;;;;;;5055673;28;20025;-47
2021/07/10 06:23:27;;;;;;;8.10;5.57;;;27.00;57.90;;;;;;5054444;28;20025;-47
2021/07/10 06:25:53;;;;;;;8.13;5.35;;;27.10;58.40;;;;;;5054761;28;20052;-46
2021/07/10 06:28:19;;;;;;;11.82;5.75;;;27.10;58.60;;;;;;5054671;28;20318;-46
2021/07/10 06:30:45;;;;;;;6.85;5.60;;;27.10;58.40;;;;;;5055285;28;20037;-48
2021/07/10 06:33:11;;;;;;;7.15;5.68;;;27.20;58.70;;;;;;5054939;28;20056;-48
2021/07/10 06:35:36;;;;;;;9.52;6.28;;;27.20;59.00;;;;;;5055181;28;20064;-48
2021/07/10 06:38:02;;;;;;;9.13;6.00;;;27.20;58.40;;;;;;5054875;28;20413;-46
2021/07/10 06:40:28;;;;;;;10.23;7.15;;;27.30;58.30;;;;;;5054985;28;20056;-50
2021/07/10 06:42:54;;;;;;;10.00;6.38;;;27.30;58.20;;;;;;5054646;28;20033;-48
2021/07/10 06:45:20;;;;;;;7.93;6.18;;;27.40;58.70;;;;;;5055155;28;20119;-49
2021/07/10 06:47:47;;;;;;;8.02;6.22;;;27.40;58.30;;;;;;5054385;28;20036;-46
2021/07/10 06:50:16;;;;;;;10.90;6.75;;;27.50;58.20;;;;;;5054906;28;20029;-47
2021/07/10 06:52:42;;;;;;;19.60;7.63;;;27.50;57.90;;;;;;5054521;28;20024;-49
2021/07/10 06:55:11;;;;;;;11.65;7.03;;;27.50;57.90;;;;;;5054858;28;20485;-45
2021/07/10 06:57:37;;;;;;;11.85;6.90;;;27.60;58.10;;;;;;5054292;28;20024;-48
2021/07/10 07:00:06;;;;;;;9.10;6.68;;;27.60;57.90;;;;;;5055107;28;20124;-46
2021/07/10 07:02:32;;;;;;;10.43;6.90;;;27.70;58.30;;;;;;5054550;28;20355;-44
2021/07/10 07:04:57;;;;;;;9.68;7.43;;;27.70;58.40;;;;;;5054387;28;20270;-45
2021/07/10 07:07:23;;;;;;;11.10;7.20;;;27.80;58.60;;;;;;5054072;28;20055;-43
2021/07/10 07:09:48;;;;;;;10.20;6.60;;;27.80;58.10;;;;;;5054603;28;20037;-46
2021/07/10 07:12:14;;;;;;;10.77;7.15;;;27.90;58.10;;;;;;5054475;28;20033;-45
2021/07/10 07:14:40;;;;;;;8.45;6.78;;;27.90;57.70;;;;;;5054609;28;20033;-47
2021/07/10 07:17:07;;;;;;;7.65;5.97;;;28.00;57.10;;;;;;5054576;28;20025;-46
2021/07/10 07:19:32;;;;;;;8.85;6.72;;;28.00;57.10;;;;;;5057993;28;20432;-43
2021/07/10 07:21:58;;;;;;;9.98;6.82;;;28.00;57.00;;;;;;5070873;28;20060;-43
2021/07/10 07:24:25;;;;;;;8.20;6.35;;;28.10;56.60;;;;;;5074862;28;20029;-44
2021/07/10 07:26:50;;;;;;;7.22;5.85;;;28.10;56.70;;;;;;5069048;28;20031;-43
2021/07/10 07:29:16;;;;;;;9.60;6.50;;;28.10;56.80;;;;;;5077782;28;20313;-42
2021/07/10 07:31:43;;;;;;;10.32;6.53;;;28.20;55.90;;;;;;5075319;28;20039;-45
2021/07/10 07:34:09;;;;;;;6.70;6.00;;;28.30;56.40;;;;;;5057443;28;20104;-45
2021/07/10 07:36:34;;;;;;;10.10;6.15;;;28.30;56.20;;;;;;5058067;28;20127;-45
2021/07/10 07:39:01;;;;;;;19.88;7.78;;;28.30;56.10;;;;;;5057554;28;20311;-46
2021/07/10 07:41:28;;;;;;;13.18;6.93;;;28.30;56.40;;;;;;5063081;28;20052;-45
2021/07/10 07:43:54;;;;;;;9.63;6.60;;;28.40;56.10;;;;;;5075307;28;20355;-45
2021/07/10 07:46:19;;;;;;;7.38;6.22;;;28.40;56.20;;;;;;5076654;28;20104;-45
2021/07/10 07:48:45;;;;;;;9.30;6.63;;;28.50;56.10;;;;;;5077004;28;20036;-45
2021/07/10 07:51:15;;;;;;;9.05;5.63;;;28.50;55.90;;;;;;5077179;28;20028;-45
2021/07/10 07:53:42;;;;;;;9.02;6.85;;;28.50;55.80;;;;;;5076552;28;20439;-46
2021/07/10 07:56:09;;;;;;;11.02;7.22;;;28.50;55.80;;;;;;5077586;28;20031;-46
2021/07/10 07:58:35;;;;;;;14.02;6.20;;;28.60;55.80;;;;;;5076819;28;20102;-47
2021/07/10 08:01:01;;;;;;;6.47;5.43;;;28.60;55.90;;;;;;5077280;28;20029;-47
2021/07/10 08:03:27;;;;;;;10.75;6.53;;;28.60;55.80;;;;;;5076498;28;20086;-48
2021/07/10 08:05:53;;;;;;;8.75;6.55;;;28.70;55.80;;;;;;5075310;28;20028;-50
2021/07/10 08:08:19;;;;;;;25.77;18.60;;;28.80;55.40;;;;;;5074969;28;20400;-45
2021/07/10 08:10:44;;;;;;;12.30;8.63;;;28.80;55.30;;;;;;5077255;28;20035;-45
2021/07/10 08:13:10;;;;;;;13.05;9.70;;;28.80;55.40;;;;;;5076167;28;20032;-46
2021/07/10 08:15:36;;;;;;;7.45;6.13;;;28.90;55.30;;;;;;5077196;28;20340;-45
2021/07/10 08:18:02;;;;;;;12.10;6.50;;;29.00;55.00;;;;;;5076638;28;20083;-47
2021/07/10 08:20:27;;;;;;;9.60;7.25;;;29.00;54.70;;;;;;5076910;28;20040;-44
2021/07/10 08:22:54;;;;;;;11.93;6.65;;;29.00;54.70;;;;;;5076141;28;20032;-46
2021/07/10 08:25:20;;;;;;;13.40;7.28;;;29.10;55.20;;;;;;5076729;28;20107;-44
2021/07/10 08:27:46;;;;;;;9.57;8.15;;;29.10;54.00;;;;;;5076115;28;20032;-43
2021/07/10 08:30:16;;;;;;;9.95;6.65;;;29.20;53.80;;;;;;5075868;28;20115;-44
2021/07/10 08:32:47;;;;;;;10.40;6.32;;;29.20;53.40;;;;;;5076338;28;20423;-43
2021/07/10 08:35:15;;;;;;;7.15;6.03;;;29.30;53.10;;;;;;5076593;28;20457;-43
2021/07/10 08:37:40;;;;;;;7.82;5.90;;;29.30;52.70;;;;;;5069518;28;20436;-45
2021/07/10 08:40:08;;;;;;;8.05;6.30;;;29.40;53.10;;;;;;5063944;28;20037;-43
2021/07/10 08:42:34;;;;;;;8.88;6.00;;;29.40;53.10;;;;;;5063882;28;20037;-46
2021/07/10 08:45:12;;;;;;;9.43;5.88;;;29.50;53.20;;;;;;5055672;28;20039;-46
2021/07/10 08:47:41;;;;;;;10.63;6.57;;;29.50;52.50;;;;;;5055616;28;20025;-45
2021/07/10 08:50:09;;;;;;;7.82;5.55;;;29.60;52.90;;;;;;5067649;28;20384;-45
2021/07/10 08:52:36;;;;;;;8.13;5.88;;;29.60;52.10;;;;;;5054834;28;20036;-47
2021/07/10 08:55:05;;;;;;;10.98;5.60;;;29.70;52.00;;;;;;5056635;28;20111;-44
2021/07/10 08:57:34;;;;;;;8.87;6.17;;;29.70;51.80;;;;;;5055721;28;20037;-44
2021/07/10 09:00:05;;;;;;;7.28;6.20;;;29.80;51.90;;;;;;5056539;28;20029;-44
2021/07/10 09:02:33;;;;;;;12.48;5.63;;;29.80;51.70;;;;;;5055496;28;20312;-44
2021/07/10 09:05:00;;;;;;;10.38;5.55;;;29.90;51.10;;;;;;5056175;28;20078;-43
2021/07/10 09:07:25;;;;;;;9.30;6.05;;;29.90;51.00;;;;;;5055679;28;20028;-43
2021/07/10 09:09:51;;;;;;;10.68;5.68;;;30.00;51.60;;;;;;5055738;28;20037;-44
2021/07/10 09:12:39;;;;;;;6.90;5.43;;;30.00;50.50;;;;;;5055125;28;20124;-44
2021/07/10 09:15:23;;;;;;;11.07;6.50;;;30.10;50.20;;;;;;5056195;28;20040;-44
2021/07/10 09:17:48;;;;;;;8.73;6.00;;;30.10;48.90;;;;;;5054713;28;20112;-46
2021/07/10 09:20:22;;;;;;;10.32;6.20;;;30.20;50.40;;;;;;5055865;28;20120;-43
2021/07/10 09:22:49;;;;;;;6.95;5.28;;;30.30;50.00;;;;;;5055494;28;20107;-46
2021/07/10 09:25:26;;;;;;;8.60;5.60;;;30.30;49.20;;;;;;5056063;28;20079;-45
2021/07/10 09:27:54;;;;;;;8.57;6.22;;;30.40;47.90;;;;;;5055471;28;20057;-43
2021/07/10 09:30:37;;;;;;;9.77;5.30;;;30.40;47.20;;;;;;5055889;28;20313;-44
2021/07/10 09:33:22;;;;;;;7.90;5.40;;;30.50;47.50;;;;;;5055365;28;20151;-47
2021/07/10 09:35:52;;;;;;;9.43;5.45;;;30.50;48.10;;;;;;5055673;28;20033;-45
2021/07/10 09:38:28;;;;;;;;;;;30.60;48.20;;;;;;5055807;28;20020;-44
2021/07/10 09:40:59;;;;;;;6.30;4.80;;;30.60;48.80;;;;;;5061339;28;20304;-42
2021/07/10 09:43:27;;;;;;;8.00;6.93;;;30.60;48.10;;;;;;5074770;28;20032;-44
2021/07/10 09:45:54;;;;;;;8.73;5.10;;;30.70;47.30;;;;;;5074970;28;20108;-44
2021/07/10 09:48:19;;;;;;;13.35;5.68;;;30.70;46.80;;;;;;5075137;28;20024;-43
2021/07/10 09:50:45;;;;;;;8.00;5.20;;;30.80;47.50;;;;;;5075056;28;20036;-47
2021/07/10 09:53:27;;;;;;;11.73;6.78;;;30.80;46.90;;;;;;5074814;28;20032;-46
2021/07/10 09:56:10;;;;;;;5.60;4.60;;;30.90;47.60;;;;;;5075230;28;20036;-43
2021/07/10 09:58:35;;;;;;;9.75;5.88;;;31.00;47.00;;;;;;5075246;28;20044;-46
2021/07/10 10:01:35;;;;;;;9.98;8.48;;;31.00;46.20;;;;;;5075022;28;20032;-42
2021/07/10 10:04:02;;;;;;;18.17;7.50;;;31.10;45.40;;;;;;5062687;28;20102;-49
2021/07/10 10:06:32;;;;;;;7.47;5.47;;;31.20;46.40;;;;;;5074802;28;20417;-44
2021/07/10 10:09:03;;;;;;;7.00;5.07;;;31.20;46.50;;;;;;5074984;28;20072;-44
2021/07/10 10:11:49;;;;;;;7.10;4.60;;;31.30;46.20;;;;;;5074824;28;20028;-43
2021/07/10 10:14:15;;;;;;;17.15;6.10;;;31.40;46.60;;;;;;5074793;28;20033;-46
2021/07/10 10:16:46;;;;;;;10.13;5.80;;;31.40;46.70;;;;;;5075072;28;20329;-42
2021/07/10 10:19:17;;;;;;;8.80;5.45;;;31.50;46.90;;;;;;5075119;28;20032;-44
2021/07/10 10:21:44;;;;;;;11.80;6.03;;;31.60;46.10;;;;;;5074475;28;20025;-43
2021/07/10 10:24:11;;;;;;;9.10;5.90;;;31.60;46.20;;;;;;5074516;28;20029;-42
2021/07/10 10:26:37;;;;;;;7.35;5.32;;;31.60;46.10;;;;;;5074616;28;20251;-46
2021/07/10 10:29:05;;;;;;;5.90;4.70;;;31.60;45.90;;;;;;5074523;28;20090;-46
2021/07/10 10:31:31;;;;;;;9.35;5.07;;;31.70;45.40;;;;;;5074555;28;20494;-47
2021/07/10 10:33:58;;;;;;;7.72;5.28;;;31.70;45.60;;;;;;5074544;28;20032;-43
2021/07/10 10:36:24;;;;;;;7.10;5.60;;;31.70;45.40;;;;;;5073917;28;20055;-46
2021/07/10 10:38:50;;;;;;;9.57;5.63;;;31.80;45.10;;;;;;5065462;28;20306;-43
2021/07/10 10:41:17;;;;;;;8.43;5.22;;;31.90;45.50;;;;;;5054252;28;20095;-47
2021/07/10 10:43:44;;;;;;;13.43;6.03;;;32.00;45.60;;;;;;5054232;28;20048;-46
2021/07/10 10:46:23;;;;;;;11.95;6.70;;;32.00;44.80;;;;;;5054955;28;20429;-46
2021/07/10 10:48:50;;;;;;;9.02;5.90;;;32.20;44.10;;;;;;5054747;28;20033;-45
2021/07/10 10:51:33;;;;;;;10.50;6.80;;;32.30;43.60;;;;;;5054565;28;20417;-45
2021/07/10 10:54:16;;;;;;;9.38;6.35;;;32.40;43.90;;;;;;5057990;28;20029;-45
2021/07/10 10:56:43;;;;;;;11.50;6.13;;;32.40;44.00;;;;;;5057863;28;20112;-45
2021/07/10 10:59:27;;;;;;;16.23;6.50;;;32.50;43.50;;;;;;5057891;28;20429;-43
2021/07/10 11:01:56;;;;;;;9.65;6.03;;;32.60;43.10;;;;;;5057710;28;20033;-44
2021/07/10 11:04:43;;;;;;;7.90;5.53;;;32.60;42.90;;;;;;5058038;28;20032;-43
2021/07/10 11:07:36;;;;;;;12.55;6.22;;;32.70;42.40;;;;;;5058041;28;20090;-46
2021/07/10 11:10:17;;;;;;;8.82;6.28;;;32.70;43.20;;;;;;5058326;28;20076;-46
2021/07/10 11:12:48;;;;;;;7.00;5.82;;;32.80;43.50;;;;;;5058211;28;20325;-43
2021/07/10 11:15:30;;;;;;;9.43;6.05;;;32.80;42.40;;;;;;5058369;28;20052;-42
2021/07/10 11:18:01;;;;;;;7.80;5.78;;;32.80;42.30;;;;;;5057572;28;20033;-47
2021/07/10 11:20:46;;;;;;;10.82;6.72;;;32.90;42.50;;;;;;5058221;28;20033;-43
2021/07/10 11:23:26;;;;;;;8.55;6.13;;;33.00;41.80;;;;;;5057812;28;20095;-41
2021/07/10 11:25:55;;;;;;;11.57;6.50;;;33.10;41.10;;;;;;5057377;28;20041;-42
2021/07/10 11:28:30;;;;;;;12.13;6.15;;;33.20;41.70;;;;;;5057432;28;20040;-45
2021/07/10 11:30:59;;;;;;;12.40;6.68;;;33.20;40.70;;;;;;5064932;28;20040;-44
2021/07/10 11:33:53;;;;;;;10.40;6.10;;;33.30;39.10;;;;;;5059455;28;20112;-43
2021/07/10 11:36:49;;;;;;;8.48;5.78;;;33.50;39.00;;;;;;5057813;28;20242;-43
2021/07/10 11:39:24;;;;;;;7.82;6.07;;;33.70;39.30;;;;;;5057478;28;20033;-49
2021/07/10 11:42:21;;;;;;;9.52;6.03;;;33.90;40.50;;;;;;5077341;28;20098;-47
2021/07/10 11:44:51;;;;;;;6.22;5.47;;;34.10;39.40;;;;;;5077278;28;20324;-44
2021/07/10 11:47:33;;;;;;;10.25;6.43;;;34.30;38.30;;;;;;5076726;28;20031;-45
2021/07/10 11:50:00;;;;;;;8.68;6.07;;;34.40;38.10;;;;;;5077205;28;20396;-40
2021/07/10 11:52:26;;;;;;;8.88;6.13;;;34.60;37.80;;;;;;5077036;28;20027;-44
2021/07/10 11:54:53;;;;;;;7.10;6.25;;;34.80;36.80;;;;;;5077424;28;20037;-47
2021/07/10 11:57:20;;;;;;;6.93;6.20;;;35.00;36.70;;;;;;5077335;28;20112;-44
2021/07/10 11:59:46;;;;;;;6.85;5.80;;;35.20;37.40;;;;;;5076842;28;20033;-48
2021/07/10 12:02:22;;;;;;;7.95;5.97;;;35.30;36.40;;;;;;5076771;28;20021;-49
2021/07/10 12:05:10;;;;;;;7.53;5.93;;;35.50;37.00;;;;;;5071754;28;20310;-45
2021/07/10 12:07:41;;;;;;;7.22;5.72;;;35.60;37.60;;;;;;5068189;28;20048;-46
2021/07/10 12:10:21;;;;;;;6.55;5.50;;;35.70;37.10;;;;;;5076705;28;20435;-46
2021/07/10 12:12:49;;;;;;;8.25;5.82;;;35.70;37.20;;;;;;5071841;28;20032;-45
2021/07/10 12:15:21;;;;;;;7.47;6.03;;;35.80;36.10;;;;;;5067981;28;20039;-42
2021/07/10 12:17:50;;;;;;;8.52;5.10;;;35.80;35.70;;;;;;5076507;28;20249;-47
2021/07/10 12:20:19;;;;;;;10.07;5.70;;;35.90;35.10;;;;;;5076893;28;20037;-43
2021/07/10 12:23:07;;;;;;;8.80;6.10;;;36.00;35.10;;;;;;5076367;28;20328;-46
2021/07/10 12:25:55;;;;;;;7.00;5.00;;;36.20;34.00;;;;;;5076421;28;20060;-44
2021/07/10 12:28:50;;;;;;;9.13;5.55;;;36.50;34.00;;;;;;5069524;28;20044;-45
2021/07/10 12:31:22;;;;;;;9.25;5.80;;;36.60;33.90;;;;;;5075762;28;20443;-45
2021/07/10 12:33:52;;;;;;;7.43;5.30;;;36.70;34.90;;;;;;5076300;28;20324;-44
2021/07/10 12:36:24;;;;;;;8.48;6.30;;;37.00;33.70;;;;;;5076460;28;20044;-45
2021/07/10 12:39:01;;;;;;;6.53;5.30;;;37.10;34.40;;;;;;5076267;28;20028;-41
2021/07/10 12:41:30;;;;;;;9.43;6.40;;;37.30;34.50;;;;;;5076004;28;20045;-41
2021/07/10 12:44:18;;;;;;;8.05;5.65;;;37.30;35.20;;;;;;5075690;28;20043;-41